Reading, KS (66868)

5:37 AM CDT on May 30, 2015 (GMT -0500)
East Emporia Kansas | | Change Station
CLOSE
Current Station
Personal Weather Station
Location: Emporia, KS
Elevation: 1106 ft
Nearby Weather Stations
Active Advisory: Flood Warning

Elev 1106 ft 38.39 °N, 96.12 °W | Updated 10 minutes ago

Overcast
Overcast
56.7 °F
Feels Like 56.7 °F
N
7.8
Wind Variable Wind from North

Today
High -- | Low -- °F
--% Chance of Precip.
Yesterday
High -- | Low -- °F
Precip. -- in
6:02 AM 8:41 PM
Waxing Gibbous, 89% visible
Pressure 30.03 in
Visibility 5.0 miles
Clouds Mostly Cloudy 600 ft
Overcast 1100 ft
Dew Point 54 °F
Humidity 91%
Rainfall 0.00 in
Snow Depth Not available.
UV 0 out of 12
Pollen .90 out of 12
Air Quality Not available.
Flu Activity No Activity
METAR KEMP 300953Z AUTO 33011G21KT 5SM BR BKN006 OVC011 14/13 A3004 RMK AO2 CIG 004V008 SLP169 T01390128

More Conditions Fewer Conditions

Pressure 30.03 in
Visibility 5.0 miles
Clouds Mostly Cloudy 600 ft
Overcast 1100 ft
Dew Point 54 °F
Humidity 91%
Rainfall 0.00 in
Snow Depth Not available.
UV 0 out of 12
Pollen .90 out of 12
Air Quality Not available.
Flu Activity No Activity
METAR KEMP 300953Z AUTO 33011G21KT 5SM BR BKN006 OVC011 14/13 A3004 RMK AO2 CIG 004V008 SLP169 T01390128

More Conditions Fewer Conditions

10-Day Weather Forecast

Almanac

Astronomy

May. 30, 2015 Rise Set
Actual Time
Civil Twilight
Nautical Twilight
Astronomical Twilight
Moon
Length of Visible Light
Length of Day
Tomorrow will be .
, % of the Moon is Illuminated

Today's Extremes

State Highs State Lows

Community

WunderPhotos

Upload Photos

1,825,478 photos uploaded!

WunderBlogs® & News

Nearby

Air Quality

  Air Quality AQ Index Pollutant
Not available.

Snow Depth

Station Depth Elevation

Earthquake Activity

City Distance Mag. Time & Date
Minimum magnitude displayed is 2.5.

Coastal Water Temperatures

Place Temperature

Stations

Nearby Weather Stations

Station Location Temp. Windchill Dew Point Humidity Wind Precip. Elev Updated Type
                   
Flood Warning
Statement as of 5:18 AM CDT on May 30, 2015

The Flood Warning continues for
the Neosho river near Neosho Rapids.
* Until Sunday afternoon.
* At 4:30 am Saturday the stage was 24.0 feet.
* Flood stage is 22.0 feet.
* Moderate flooding is occurring and moderate flooding is forecast.
* Forecast... the river is forecast to remain near 24.0 ft this
morning. The river will fall below flood stage late Saturday
evening.
* Impact... at 23.0 feet... water overtops Road 145 on the west side
of the bridge over the Neosho river.


Lat... Lon 3838 9606 3842 9605 3830 9586 3826 9588